createdAt,value
2018-09-22T00:00:27.566Z,39.00
2018-09-22T00:01:27.584Z,39.90
2018-09-22T00:02:27.596Z,39.80
2018-09-22T00:03:27.598Z,41.20
2018-09-22T00:04:27.728Z,39.20
2018-09-22T00:05:27.763Z,39.00
2018-09-22T00:06:27.642Z,38.60
2018-09-22T00:07:27.658Z,37.80
2018-09-22T00:08:27.678Z,36.20
2018-09-22T00:09:27.787Z,35.10
2018-09-22T00:10:27.715Z,34.80
2018-09-22T00:11:27.717Z,35.50
2018-09-22T00:12:27.734Z,37.00
2018-09-22T00:13:27.763Z,39.00
2018-09-22T00:14:27.907Z,38.30
2018-09-22T00:15:27.779Z,38.20
2018-09-22T00:16:27.789Z,37.50
2018-09-22T00:17:27.809Z,37.00
2018-09-22T00:18:27.813Z,35.30
2018-09-22T00:19:27.894Z,33.60
2018-09-22T00:20:27.958Z,33.40
2018-09-22T00:21:27.875Z,35.10
2018-09-22T00:22:27.894Z,34.90
2018-09-22T00:23:27.900Z,35.20
2018-09-22T00:24:27.924Z,35.30
2018-09-22T00:25:28.032Z,35.40
2018-09-22T00:26:27.939Z,34.70
2018-09-22T00:27:27.956Z,35.50
2018-09-22T00:28:27.965Z,36.00
2018-09-22T00:29:27.988Z,34.80
2018-09-22T00:30:28.097Z,35.50
2018-09-22T00:31:28.016Z,34.80
2018-09-22T00:32:28.038Z,33.80
2018-09-22T00:33:28.049Z,31.60
2018-09-22T00:34:28.062Z,31.40
2018-09-22T00:35:28.329Z,28.80
2018-09-22T00:36:28.083Z,27.90
2018-09-22T00:37:28.097Z,27.80
2018-09-22T00:38:28.122Z,27.70
2018-09-22T00:39:28.126Z,27.50
2018-09-22T00:40:28.249Z,26.80
2018-09-22T00:41:28.156Z,26.90
2018-09-22T00:42:28.174Z,27.20
2018-09-22T00:43:28.181Z,26.70
2018-09-22T00:44:28.208Z,27.00
2018-09-22T00:45:28.329Z,27.40
2018-09-22T00:46:28.244Z,27.40
2018-09-22T00:47:28.260Z,27.20
2018-09-22T00:48:28.260Z,27.00
2018-09-22T00:49:28.281Z,27.80
2018-09-22T00:50:28.438Z,26.90
2018-09-22T00:51:28.301Z,25.90
2018-09-22T00:52:28.325Z,26.20
2018-09-22T00:53:28.338Z,25.70
2018-09-22T00:54:28.344Z,25.40
2018-09-22T00:55:28.453Z,24.40
2018-09-22T00:56:28.383Z,24.80
2018-09-22T00:57:28.396Z,24.10
2018-09-22T00:58:28.407Z,24.80
2018-09-22T00:59:28.422Z,25.00
2018-09-22T01:00:28.533Z,25.90
2018-09-22T01:01:28.459Z,26.00
2018-09-22T01:02:28.472Z,25.40
2018-09-22T01:03:28.488Z,24.80
2018-09-22T01:04:28.493Z,24.80
2018-09-22T01:05:28.623Z,25.70
2018-09-22T01:06:28.520Z,26.80
2018-09-22T01:07:28.542Z,26.40
2018-09-22T01:08:28.548Z,25.40
2018-09-22T01:09:28.570Z,26.40
2018-09-22T01:10:28.681Z,26.50
2018-09-22T01:11:28.588Z,26.80
2018-09-22T01:12:28.619Z,25.90
2018-09-22T01:13:28.630Z,26.00
2018-09-22T01:14:28.637Z,27.40
2018-09-22T01:15:28.767Z,28.40
2018-09-22T01:16:28.672Z,28.50
2018-09-22T01:17:28.677Z,28.80
2018-09-22T01:18:28.711Z,29.10
2018-09-22T01:19:28.703Z,28.70
2018-09-22T01:20:28.833Z,29.30
2018-09-22T01:21:28.744Z,27.20
2018-09-22T01:22:28.755Z,27.90
2018-09-22T01:23:28.774Z,27.60
2018-09-22T01:24:28.782Z,26.80
2018-09-22T01:25:28.826Z,26.50
2018-09-22T01:26:28.926Z,25.70
2018-09-22T01:27:28.836Z,24.70
2018-09-22T01:28:28.853Z,24.00
2018-09-22T01:29:28.856Z,24.20
2018-09-22T01:30:28.868Z,23.80
2018-09-22T01:31:29.002Z,24.10
2018-09-22T01:32:28.906Z,23.40
2018-09-22T01:33:28.910Z,24.20
2018-09-22T01:34:28.943Z,22.90
2018-09-22T01:35:28.946Z,22.90
2018-09-22T01:36:29.049Z,22.90
2018-09-22T01:37:28.990Z,22.70
2018-09-22T01:38:28.990Z,23.70
2018-09-22T01:39:29.006Z,23.20
2018-09-22T01:40:29.021Z,24.60
2018-09-22T01:41:29.139Z,23.70
2018-09-22T01:42:29.055Z,23.40
2018-09-22T01:43:29.068Z,23.60
2018-09-22T01:44:29.083Z,24.40
2018-09-22T01:45:29.095Z,24.30
2018-09-22T01:46:29.206Z,24.40
2018-09-22T01:47:29.114Z,23.80
2018-09-22T01:48:29.129Z,23.20
2018-09-22T01:49:29.144Z,22.90
2018-09-22T01:50:29.159Z,23.40
2018-09-22T01:51:29.265Z,23.40
2018-09-22T01:52:29.227Z,23.00
2018-09-22T01:53:29.198Z,23.30
2018-09-22T01:54:29.223Z,23.90
2018-09-22T01:55:29.223Z,23.20
2018-09-22T01:56:29.354Z,23.20
2018-09-22T01:57:29.254Z,23.10
2018-09-22T01:58:29.279Z,22.80
2018-09-22T01:59:29.294Z,23.80
2018-09-22T02:00:29.299Z,23.50
2018-09-22T02:01:29.434Z,23.60
2018-09-22T02:02:29.344Z,23.40
2018-09-22T02:03:29.335Z,23.20
2018-09-22T02:04:29.358Z,22.80
2018-09-22T02:05:29.382Z,23.50
2018-09-22T02:06:29.485Z,22.60
2018-09-22T02:07:29.398Z,23.10
2018-09-22T02:08:29.420Z,23.40
2018-09-22T02:09:29.436Z,22.90
2018-09-22T02:10:29.459Z,22.50
2018-09-22T02:11:29.562Z,22.30
2018-09-22T02:12:29.480Z,22.70
2018-09-22T02:13:29.495Z,22.90
2018-09-22T02:14:29.498Z,21.70
2018-09-22T02:15:29.525Z,22.20
2018-09-22T02:16:29.632Z,22.70
2018-09-22T02:17:29.547Z,24.30
2018-09-22T02:18:29.560Z,24.90
2018-09-22T02:19:29.575Z,29.90
2018-09-22T02:20:29.588Z,28.70
2018-09-22T02:21:29.695Z,30.50
2018-09-22T02:22:29.618Z,30.40
2018-09-22T02:23:29.631Z,29.60
2018-09-22T02:24:29.641Z,29.80
2018-09-22T02:25:29.653Z,30.80
2018-09-22T02:26:29.775Z,31.20
2018-09-22T02:27:29.683Z,30.70
2018-09-22T02:28:29.690Z,31.90
2018-09-22T02:29:29.714Z,32.50
2018-09-22T02:30:29.736Z,30.60
2018-09-22T02:31:29.840Z,31.30
2018-09-22T02:32:29.758Z,32.00
2018-09-22T02:33:29.760Z,31.00
2018-09-22T02:34:29.779Z,32.30
2018-09-22T02:35:29.789Z,32.40
2018-09-22T02:36:29.812Z,31.80
2018-09-22T02:37:29.918Z,32.40
2018-09-22T02:38:29.832Z,32.40
2018-09-22T02:39:29.859Z,31.60
2018-09-22T02:40:29.870Z,34.30
2018-09-22T02:41:29.881Z,32.90
2018-09-22T02:42:29.986Z,34.30
2018-09-22T02:43:29.913Z,35.50
2018-09-22T02:44:29.914Z,33.40
2018-09-22T02:45:29.946Z,34.20
2018-09-22T02:46:29.953Z,33.80
2018-09-22T02:47:30.059Z,32.90
2018-09-22T02:48:29.970Z,33.30
2018-09-22T02:49:29.994Z,34.30
2018-09-22T02:50:30.009Z,33.70
2018-09-22T02:51:30.016Z,33.10
2018-09-22T02:52:30.131Z,34.30
2018-09-22T02:53:30.036Z,33.20
2018-09-22T02:54:30.050Z,35.90
2018-09-22T02:55:30.065Z,36.40
2018-09-22T02:56:30.076Z,37.10
2018-09-22T02:57:30.193Z,35.80
2018-09-22T02:58:30.099Z,38.00
2018-09-22T02:59:30.132Z,36.50
2018-09-22T03:00:30.150Z,36.90
2018-09-22T03:01:30.162Z,38.40
2018-09-22T03:02:30.263Z,37.50
2018-09-22T03:03:30.187Z,39.50
2018-09-22T03:04:30.192Z,39.00
2018-09-22T03:05:30.213Z,37.60
2018-09-22T03:06:30.218Z,36.60
2018-09-22T03:07:30.323Z,36.10
2018-09-22T03:08:30.254Z,37.50
2018-09-22T03:09:30.266Z,35.40
2018-09-22T03:10:30.284Z,34.90
2018-09-22T03:11:30.297Z,34.30
2018-09-22T03:12:30.406Z,34.00
2018-09-22T03:13:30.316Z,35.70
2018-09-22T03:14:30.325Z,34.60
2018-09-22T03:15:30.362Z,35.40
2018-09-22T03:16:30.371Z,35.80
2018-09-22T03:17:30.519Z,35.30
2018-09-22T03:18:30.391Z,34.00
2018-09-22T03:19:30.406Z,35.50
2018-09-22T03:20:30.407Z,34.90
2018-09-22T03:21:30.424Z,35.60
2018-09-22T03:22:30.585Z,33.70
2018-09-22T03:23:30.448Z,33.90
2018-09-22T03:24:30.470Z,35.20
2018-09-22T03:25:30.478Z,36.30
2018-09-22T03:26:30.493Z,34.70
2018-09-22T03:27:30.764Z,35.10
2018-09-22T03:28:30.530Z,35.80
2018-09-22T03:29:30.545Z,35.10
2018-09-22T03:30:30.562Z,35.80
2018-09-22T03:31:30.568Z,36.60
2018-09-22T03:32:30.677Z,38.60
2018-09-22T03:33:30.588Z,38.20
2018-09-22T03:34:30.600Z,39.00
2018-09-22T03:35:30.627Z,39.00
2018-09-22T03:36:30.638Z,39.00
2018-09-22T03:37:30.754Z,39.20
2018-09-22T03:38:30.667Z,38.70
2018-09-22T03:39:30.664Z,40.50
2018-09-22T03:40:30.684Z,42.50
2018-09-22T03:41:30.695Z,42.90
2018-09-22T03:42:30.870Z,45.60
2018-09-22T03:43:30.735Z,44.50
2018-09-22T03:44:30.738Z,44.70
2018-09-22T03:45:30.766Z,44.30
2018-09-22T03:46:30.758Z,44.70
2018-09-22T03:47:30.792Z,45.60
2018-09-22T03:48:30.892Z,43.70
2018-09-22T03:49:30.797Z,44.40
2018-09-22T03:50:30.825Z,44.80
2018-09-22T03:51:30.834Z,45.00
2018-09-22T03:52:30.852Z,45.00
2018-09-22T03:53:30.961Z,46.90
2018-09-22T03:54:30.874Z,47.00
2018-09-22T03:55:30.905Z,47.90
2018-09-22T03:56:30.904Z,46.70
2018-09-22T03:57:30.913Z,46.50
2018-09-22T03:58:31.075Z,48.10
2018-09-22T03:59:30.950Z,47.30
2018-09-22T04:00:30.949Z,46.20
2018-09-22T04:01:30.968Z,47.60
2018-09-22T04:02:30.998Z,49.30
2018-09-22T04:03:31.092Z,48.80
2018-09-22T04:04:31.023Z,52.50
2018-09-22T04:05:31.017Z,53.70
2018-09-22T04:06:31.048Z,52.70
2018-09-22T04:07:31.056Z,54.90
2018-09-22T04:08:31.209Z,55.40
2018-09-22T04:09:31.070Z,55.40
2018-09-22T04:10:31.097Z,56.40
2018-09-22T04:11:31.097Z,56.10
2018-09-22T04:12:31.115Z,57.30
2018-09-22T04:13:31.239Z,55.80
2018-09-22T04:14:31.354Z,58.50
2018-09-22T04:15:31.152Z,59.30
2018-09-22T04:16:31.164Z,61.10
2018-09-22T04:17:31.193Z,59.00
2018-09-22T04:18:31.292Z,60.30
2018-09-22T04:19:31.219Z,60.80
2018-09-22T04:20:31.228Z,62.00
2018-09-22T04:21:31.235Z,61.10
2018-09-22T04:22:31.258Z,59.10
2018-09-22T04:23:31.372Z,60.50
2018-09-22T04:24:31.285Z,60.40
2018-09-22T04:25:31.289Z,58.80
2018-09-22T04:26:31.298Z,58.90
2018-09-22T04:27:31.321Z,57.60
2018-09-22T04:28:31.435Z,56.10
2018-09-22T04:29:31.337Z,57.90
2018-09-22T04:30:31.351Z,56.10
2018-09-22T04:31:31.360Z,53.70
2018-09-22T04:32:31.388Z,52.70
2018-09-22T04:33:31.593Z,52.50
2018-09-22T04:34:31.418Z,55.30
2018-09-22T04:35:31.425Z,54.70
2018-09-22T04:36:31.445Z,57.30
2018-09-22T04:37:31.447Z,58.70
2018-09-22T04:38:31.566Z,59.80
2018-09-22T04:39:31.483Z,58.20
2018-09-22T04:40:31.498Z,60.30
2018-09-22T04:41:31.511Z,59.60
2018-09-22T04:42:31.515Z,59.30
2018-09-22T04:43:31.687Z,60.10
2018-09-22T04:44:31.556Z,60.20
2018-09-22T04:45:31.569Z,58.30
2018-09-22T04:46:31.566Z,57.90
2018-09-22T04:47:31.585Z,59.70
2018-09-22T04:48:31.693Z,59.60
2018-09-22T04:49:31.622Z,59.50
2018-09-22T04:50:31.620Z,59.10
2018-09-22T04:51:31.631Z,61.70
2018-09-22T04:52:31.650Z,57.60
2018-09-22T04:53:31.767Z,58.20
2018-09-22T04:54:31.680Z,56.90
2018-09-22T04:55:31.683Z,52.20
2018-09-22T04:56:31.710Z,52.50
2018-09-22T04:57:31.727Z,55.20
2018-09-22T04:58:31.878Z,53.00
2018-09-22T04:59:31.754Z,53.50
2018-09-22T05:00:31.763Z,52.00
2018-09-22T05:01:31.782Z,52.10
2018-09-22T05:02:31.796Z,50.60
2018-09-22T05:03:31.792Z,47.70
2018-09-22T05:04:31.906Z,45.70
2018-09-22T05:05:31.825Z,44.00
2018-09-22T05:06:31.843Z,46.40
2018-09-22T05:07:31.855Z,45.70
2018-09-22T05:08:31.862Z,44.20
2018-09-22T05:09:32.037Z,45.40
2018-09-22T05:10:31.903Z,45.30
2018-09-22T05:11:31.905Z,45.80
2018-09-22T05:12:31.923Z,43.50
2018-09-22T05:13:31.915Z,43.80
2018-09-22T05:14:32.047Z,45.60
2018-09-22T05:15:31.944Z,45.20
2018-09-22T05:16:31.960Z,44.00
2018-09-22T05:17:31.986Z,42.80
2018-09-22T05:18:31.999Z,40.00
2018-09-22T05:19:32.118Z,41.30
2018-09-22T05:20:32.032Z,39.20
2018-09-22T05:21:32.026Z,40.50
2018-09-22T05:22:32.058Z,35.30
2018-09-22T05:23:32.056Z,36.30
2018-09-22T05:24:32.213Z,33.90
2018-09-22T05:25:32.085Z,34.70
2018-09-22T05:26:32.105Z,32.90
2018-09-22T05:27:32.115Z,34.00
2018-09-22T05:28:32.130Z,34.50
2018-09-22T05:29:32.292Z,35.20
2018-09-22T05:30:32.154Z,35.90
2018-09-22T05:31:32.171Z,35.80
2018-09-22T05:32:32.181Z,37.30
2018-09-22T05:33:32.371Z,38.80
2018-09-22T05:34:32.361Z,40.60
2018-09-22T05:35:32.225Z,40.50
2018-09-22T05:36:32.236Z,39.60
2018-09-22T05:37:32.257Z,43.30
2018-09-22T05:38:32.258Z,42.50
2018-09-22T05:39:32.376Z,40.20
2018-09-22T05:40:32.292Z,40.90
2018-09-22T05:41:32.299Z,35.40
2018-09-22T05:42:32.313Z,35.20
2018-09-22T05:43:32.321Z,32.60
2018-09-22T05:44:32.487Z,34.40
2018-09-22T05:45:32.353Z,33.40
2018-09-22T05:46:32.357Z,33.70
2018-09-22T05:47:32.365Z,32.90
2018-09-22T05:48:32.392Z,31.50
2018-09-22T05:49:32.554Z,31.60
2018-09-22T05:50:32.414Z,32.10
2018-09-22T05:51:32.417Z,33.00
2018-09-22T05:52:32.449Z,32.80
2018-09-22T05:53:32.450Z,31.40
2018-09-22T05:54:32.620Z,31.30
2018-09-22T05:55:32.475Z,29.30
2018-09-22T05:56:32.497Z,28.00
2018-09-22T05:57:32.512Z,29.40
2018-09-22T05:58:32.512Z,29.90
2018-09-22T05:59:32.625Z,29.10
2018-09-22T06:00:32.537Z,26.40
2018-09-22T06:01:32.568Z,28.80
2018-09-22T06:02:32.582Z,28.70
2018-09-22T06:03:32.652Z,29.10
2018-09-22T06:04:32.756Z,29.80
2018-09-22T06:05:32.618Z,29.70
2018-09-22T06:06:32.619Z,29.70
2018-09-22T06:07:32.638Z,29.80
2018-09-22T06:08:32.677Z,29.70
2018-09-22T06:09:32.857Z,29.20
2018-09-22T06:10:32.688Z,28.80
2018-09-22T06:11:32.684Z,29.30
2018-09-22T06:12:32.697Z,28.60
2018-09-22T06:13:32.707Z,28.30
2018-09-22T06:14:32.738Z,29.90
2018-09-22T06:15:32.911Z,28.20
2018-09-22T06:16:32.766Z,28.50
2018-09-22T06:17:32.761Z,26.30
2018-09-22T06:18:32.827Z,27.60
2018-09-22T06:19:32.797Z,27.00
2018-09-22T06:20:32.912Z,26.80
2018-09-22T06:21:32.816Z,25.40
2018-09-22T06:22:32.837Z,24.80
2018-09-22T06:23:32.901Z,25.50
2018-09-22T06:24:32.861Z,26.30
2018-09-22T06:25:33.035Z,24.50
2018-09-22T06:26:32.887Z,26.70
2018-09-22T06:27:32.909Z,24.50
2018-09-22T06:28:32.923Z,26.30
2018-09-22T06:29:32.924Z,27.00
2018-09-22T06:30:33.098Z,27.40
2018-09-22T06:31:32.950Z,26.80
2018-09-22T06:32:32.968Z,26.60
2018-09-22T06:33:33.060Z,26.50
2018-09-22T06:34:33.001Z,27.00
2018-09-22T06:35:33.157Z,27.80
2018-09-22T06:36:33.020Z,27.80
2018-09-22T06:37:33.238Z,27.10
2018-09-22T06:38:33.050Z,26.70
2018-09-22T06:39:33.061Z,26.20
2018-09-22T06:40:33.171Z,25.80
2018-09-22T06:41:33.105Z,26.80
2018-09-22T06:42:33.102Z,27.10
2018-09-22T06:43:33.125Z,27.50
2018-09-22T06:44:33.135Z,26.90
2018-09-22T06:45:33.237Z,26.40
2018-09-22T06:46:33.152Z,27.90
2018-09-22T06:47:33.171Z,26.90
2018-09-22T06:48:33.181Z,27.70
2018-09-22T06:49:33.204Z,28.10
2018-09-22T06:50:33.373Z,28.60
2018-09-22T06:51:33.230Z,28.10
2018-09-22T06:52:33.231Z,29.00
2018-09-22T06:53:33.258Z,28.70
2018-09-22T06:54:33.272Z,29.30
2018-09-22T06:55:33.382Z,28.20
2018-09-22T06:56:33.297Z,29.00
2018-09-22T06:57:33.302Z,28.90
2018-09-22T06:58:33.314Z,30.50
2018-09-22T06:59:33.324Z,29.40
2018-09-22T07:00:33.454Z,29.50
2018-09-22T07:01:33.350Z,28.10
2018-09-22T07:02:33.377Z,28.20
2018-09-22T07:03:33.377Z,25.90
2018-09-22T07:04:33.410Z,28.00
2018-09-22T07:05:33.564Z,29.50
2018-09-22T07:06:33.480Z,27.30
2018-09-22T07:07:33.445Z,26.70
2018-09-22T07:08:33.445Z,27.30
2018-09-22T07:09:33.470Z,28.00
2018-09-22T07:10:33.624Z,28.20
2018-09-22T07:11:33.485Z,28.60
2018-09-22T07:12:33.497Z,26.80
2018-09-22T07:13:33.526Z,29.30
2018-09-22T07:14:33.534Z,29.10
2018-09-22T07:15:33.699Z,29.20
2018-09-22T07:16:33.562Z,27.40
2018-09-22T07:17:33.581Z,26.80
2018-09-22T07:18:33.590Z,26.20
2018-09-22T07:19:33.618Z,27.40
2018-09-22T07:20:33.765Z,26.90
2018-09-22T07:21:33.619Z,26.60
2018-09-22T07:22:33.628Z,25.80
2018-09-22T07:23:33.656Z,25.80
2018-09-22T07:24:33.670Z,26.00
2018-09-22T07:25:33.684Z,25.70
2018-09-22T07:26:33.834Z,26.40
2018-09-22T07:27:33.708Z,25.60
2018-09-22T07:28:33.726Z,26.70
2018-09-22T07:29:33.736Z,25.20
2018-09-22T07:30:33.751Z,27.10
2018-09-22T07:31:33.761Z,27.50
2018-09-22T07:32:33.926Z,27.50
2018-09-22T07:33:33.772Z,28.20
2018-09-22T07:34:33.804Z,29.30
2018-09-22T07:35:33.801Z,28.90
2018-09-22T07:36:33.826Z,28.90
2018-09-22T07:37:33.994Z,26.80
2018-09-22T07:38:33.837Z,27.00
2018-09-22T07:39:33.974Z,27.50
2018-09-22T07:40:33.880Z,27.30
2018-09-22T07:41:33.885Z,31.60
2018-09-22T07:42:33.995Z,29.70
2018-09-22T07:43:33.920Z,30.00
2018-09-22T07:44:33.936Z,31.20
2018-09-22T07:45:33.941Z,31.20
2018-09-22T07:46:33.961Z,31.10
2018-09-22T07:47:34.120Z,29.30
2018-09-22T07:48:33.981Z,29.20
2018-09-22T07:49:33.989Z,29.50
2018-09-22T07:50:33.999Z,30.00
2018-09-22T07:51:34.012Z,29.90
2018-09-22T07:52:34.187Z,29.20
2018-09-22T07:53:34.041Z,29.50
2018-09-22T07:54:34.105Z,28.60
2018-09-22T07:55:34.072Z,30.00
2018-09-22T07:56:34.088Z,29.90
2018-09-22T07:57:34.200Z,31.10
2018-09-22T07:58:34.122Z,31.30
2018-09-22T07:59:34.121Z,30.60
2018-09-22T08:00:34.209Z,30.50
2018-09-22T08:01:34.140Z,29.30
2018-09-22T08:02:34.304Z,29.80
2018-09-22T08:03:34.174Z,29.30
2018-09-22T08:04:34.188Z,31.90
2018-09-22T08:05:34.191Z,31.20
2018-09-22T08:06:34.204Z,32.80
2018-09-22T08:07:34.365Z,32.80
2018-09-22T08:08:34.239Z,33.20
2018-09-22T08:09:34.253Z,33.20
2018-09-22T08:10:34.260Z,33.10
2018-09-22T08:11:34.326Z,32.70
2018-09-22T08:12:34.430Z,32.80
2018-09-22T08:13:34.296Z,33.00
2018-09-22T08:14:34.309Z,33.60
2018-09-22T08:15:34.338Z,33.00
2018-09-22T08:16:34.342Z,32.70
2018-09-22T08:17:34.495Z,32.20
2018-09-22T08:18:34.371Z,33.10
2018-09-22T08:19:34.386Z,32.70
2018-09-22T08:20:34.391Z,33.20
2018-09-22T08:21:34.410Z,32.50
2018-09-22T08:22:34.520Z,34.50
2018-09-22T08:23:34.424Z,35.70
2018-09-22T08:24:34.449Z,34.10
2018-09-22T08:25:34.448Z,32.90
2018-09-22T08:26:34.468Z,33.80
2018-09-22T08:27:34.643Z,35.80
2018-09-22T08:28:34.496Z,31.60
2018-09-22T08:29:34.513Z,33.40
2018-09-22T08:30:34.512Z,31.80
2018-09-22T08:31:34.524Z,32.50
2018-09-22T08:32:34.694Z,29.90
2018-09-22T08:33:34.561Z,31.80
2018-09-22T08:34:34.576Z,30.90
2018-09-22T08:35:34.572Z,31.00
2018-09-22T08:36:34.964Z,30.10
2018-09-22T08:37:34.707Z,31.40
2018-09-22T08:38:34.610Z,31.30
2018-09-22T08:39:34.639Z,31.60
2018-09-22T08:40:34.654Z,33.10
2018-09-22T08:41:34.656Z,30.40
2018-09-22T08:42:34.768Z,31.70
2018-09-22T08:43:34.681Z,32.80
2018-09-22T08:44:34.708Z,32.90
2018-09-22T08:45:34.707Z,32.50
2018-09-22T08:46:34.715Z,34.00
2018-09-22T08:47:34.732Z,32.80
2018-09-22T08:48:34.905Z,32.00
2018-09-22T08:49:34.828Z,32.80
2018-09-22T08:50:34.782Z,33.60
2018-09-22T08:51:34.808Z,34.10
2018-09-22T08:52:34.800Z,34.10
2018-09-22T08:53:34.960Z,33.20
2018-09-22T08:54:34.835Z,33.30
2018-09-22T08:55:34.837Z,35.00
2018-09-22T08:56:34.864Z,34.50
2018-09-22T08:57:34.870Z,33.10
2018-09-22T08:58:35.063Z,35.80
2018-09-22T08:59:34.905Z,31.50
2018-09-22T09:00:34.943Z,30.80
2018-09-22T09:01:34.930Z,29.80
2018-09-22T09:02:34.938Z,30.00
2018-09-22T09:03:35.090Z,30.70
2018-09-22T09:04:34.953Z,30.10
2018-09-22T09:05:34.973Z,30.70
2018-09-22T09:06:34.990Z,30.80
2018-09-22T09:07:34.993Z,30.00
2018-09-22T09:08:35.169Z,30.10
2018-09-22T09:09:35.032Z,29.80
2018-09-22T09:10:35.031Z,29.00
2018-09-22T09:11:35.126Z,28.20
2018-09-22T09:12:35.062Z,29.30
2018-09-22T09:13:35.229Z,28.40
2018-09-22T09:14:35.104Z,28.20
2018-09-22T09:15:35.098Z,30.30
2018-09-22T09:16:35.112Z,27.80
2018-09-22T09:17:35.122Z,28.50
2018-09-22T09:18:35.284Z,31.00
2018-09-22T09:19:35.155Z,28.80
2018-09-22T09:20:35.172Z,29.40
2018-09-22T09:21:35.185Z,30.40
2018-09-22T09:22:35.196Z,30.00
2018-09-22T09:23:35.349Z,30.20
2018-09-22T09:24:35.219Z,35.00
2018-09-22T09:25:35.225Z,33.30
2018-09-22T09:26:35.237Z,31.90
2018-09-22T09:27:35.315Z,29.70
2018-09-22T09:28:35.415Z,29.90
2018-09-22T09:29:35.287Z,31.10
2018-09-22T09:30:35.298Z,31.20
2018-09-22T09:31:35.301Z,32.50
2018-09-22T09:32:35.324Z,27.50
2018-09-22T09:33:35.444Z,29.40
2018-09-22T09:34:35.354Z,30.30
2018-09-22T09:35:35.355Z,28.10
2018-09-22T09:36:35.377Z,27.60
2018-09-22T09:37:35.382Z,28.10
2018-09-22T09:38:35.553Z,26.90
2018-09-22T09:39:35.423Z,26.80
2018-09-22T09:40:35.419Z,28.20
2018-09-22T09:41:35.444Z,28.20
2018-09-22T09:42:35.447Z,30.80
2018-09-22T09:43:35.625Z,29.10
2018-09-22T09:44:35.477Z,28.50
2018-09-22T09:45:35.497Z,29.00
2018-09-22T09:46:35.501Z,30.20
2018-09-22T09:47:35.513Z,28.10
2018-09-22T09:48:35.679Z,31.00
2018-09-22T09:49:35.545Z,32.20
2018-09-22T09:50:35.554Z,31.00
2018-09-22T09:51:35.577Z,29.50
2018-09-22T09:52:35.596Z,28.30
2018-09-22T09:53:35.691Z,28.30
2018-09-22T09:54:35.653Z,28.60
2018-09-22T09:55:35.622Z,30.40
2018-09-22T09:56:35.641Z,30.10
2018-09-22T09:57:35.649Z,31.30
2018-09-22T09:58:35.813Z,32.00
2018-09-22T09:59:35.673Z,32.00
2018-09-22T10:00:35.697Z,32.60
2018-09-22T10:01:35.714Z,28.00
2018-09-22T10:02:35.715Z,28.10
2018-09-22T10:03:35.736Z,27.90
2018-09-22T10:04:35.874Z,27.90
2018-09-22T10:05:35.761Z,28.20
2018-09-22T10:06:35.772Z,30.90
2018-09-22T10:07:35.799Z,32.40
2018-09-22T10:08:35.805Z,32.70
2018-09-22T10:09:35.974Z,31.80
2018-09-22T10:10:35.835Z,31.20
2018-09-22T10:11:35.860Z,30.00
2018-09-22T10:12:35.864Z,32.00
2018-09-22T10:13:35.882Z,32.90
2018-09-22T10:14:36.028Z,32.50
2018-09-22T10:15:35.895Z,34.60
2018-09-22T10:16:35.903Z,33.80
2018-09-22T10:17:35.935Z,33.30
2018-09-22T10:18:35.953Z,31.80
2018-09-22T10:19:36.099Z,32.70
2018-09-22T10:20:35.963Z,31.40
2018-09-22T10:21:35.990Z,30.50
2018-09-22T10:22:36.006Z,29.80
2018-09-22T10:23:36.005Z,30.90
2018-09-22T10:24:36.170Z,31.50
2018-09-22T10:25:36.053Z,31.10
2018-09-22T10:26:36.067Z,30.70
2018-09-22T10:27:36.072Z,28.70
2018-09-22T10:28:36.173Z,28.70
2018-09-22T10:29:36.249Z,28.80
2018-09-22T10:30:36.108Z,28.50
2018-09-22T10:31:36.130Z,26.70
2018-09-22T10:32:36.134Z,28.90
2018-09-22T10:33:36.150Z,25.20
2018-09-22T10:34:36.322Z,26.40
2018-09-22T10:35:36.182Z,26.90
2018-09-22T10:36:36.217Z,27.10
2018-09-22T10:37:36.223Z,28.40
2018-09-22T10:38:36.238Z,27.20
2018-09-22T10:39:36.478Z,26.10
2018-09-22T10:40:36.269Z,26.00
2018-09-22T10:41:36.269Z,23.80
2018-09-22T10:42:36.292Z,25.20
2018-09-22T10:43:36.314Z,25.40
2018-09-22T10:44:36.463Z,26.70
2018-09-22T10:45:36.340Z,27.00
2018-09-22T10:46:36.357Z,29.00
2018-09-22T10:47:36.369Z,27.30
2018-09-22T10:48:36.382Z,28.40
2018-09-22T10:49:36.555Z,29.00
2018-09-22T10:50:36.413Z,28.50
2018-09-22T10:51:36.437Z,28.40
2018-09-22T10:52:36.495Z,28.50
2018-09-22T10:53:36.452Z,28.80
2018-09-22T10:54:36.578Z,29.30
2018-09-22T10:55:36.535Z,29.30
2018-09-22T10:56:36.496Z,29.90
2018-09-22T10:57:36.515Z,30.10
2018-09-22T10:58:36.528Z,31.20
2018-09-22T10:59:36.701Z,29.90
2018-09-22T11:00:36.571Z,29.40
2018-09-22T11:01:36.575Z,29.30
2018-09-22T11:02:36.595Z,29.30
2018-09-22T11:03:36.613Z,29.70
2018-09-22T11:04:36.779Z,29.70
2018-09-22T11:05:36.642Z,27.30
2018-09-22T11:06:36.650Z,30.40
2018-09-22T11:07:36.675Z,31.20
2018-09-22T11:08:36.684Z,29.60
2018-09-22T11:09:36.697Z,29.10
2018-09-22T11:10:36.823Z,28.70
2018-09-22T11:11:36.739Z,28.70
2018-09-22T11:12:36.753Z,28.10
2018-09-22T11:13:36.773Z,28.50
2018-09-22T11:14:36.775Z,29.10
2018-09-22T11:15:36.971Z,26.90
2018-09-22T11:16:36.805Z,26.90
2018-09-22T11:17:36.840Z,27.20
2018-09-22T11:18:36.850Z,27.10
2018-09-22T11:19:36.855Z,26.70
2018-09-22T11:20:37.028Z,28.00
2018-09-22T11:21:36.892Z,28.50
2018-09-22T11:22:36.898Z,29.60
2018-09-22T11:23:36.923Z,29.70
2018-09-22T11:24:36.943Z,28.00
2018-09-22T11:25:37.043Z,28.50
2018-09-22T11:26:36.976Z,27.70
2018-09-22T11:27:36.988Z,27.50
2018-09-22T11:28:37.008Z,26.20
2018-09-22T11:29:37.011Z,26.30
2018-09-22T11:30:37.184Z,26.20
2018-09-22T11:31:37.052Z,26.40
2018-09-22T11:32:37.066Z,26.00
2018-09-22T11:33:37.080Z,26.20
2018-09-22T11:34:37.103Z,25.60
2018-09-22T11:35:37.276Z,24.80
2018-09-22T11:36:37.121Z,24.30
2018-09-22T11:37:37.154Z,23.50
2018-09-22T11:38:37.170Z,22.50
2018-09-22T11:39:37.188Z,23.90
2018-09-22T11:40:37.345Z,23.20
2018-09-22T11:41:37.211Z,23.20
2018-09-22T11:42:37.230Z,22.20
2018-09-22T11:43:37.242Z,22.80
2018-09-22T11:44:37.269Z,22.10
2018-09-22T11:45:37.438Z,21.40
2018-09-22T11:46:37.309Z,22.30
2018-09-22T11:47:37.322Z,21.70
2018-09-22T11:48:37.339Z,20.80
2018-09-22T11:49:37.360Z,20.20
2018-09-22T11:50:37.513Z,20.90
2018-09-22T11:51:37.389Z,20.50
2018-09-22T11:52:37.400Z,20.20
2018-09-22T11:53:37.421Z,20.50
2018-09-22T11:54:37.433Z,20.20
2018-09-22T11:55:37.597Z,20.40
2018-09-22T11:56:37.511Z,21.20
2018-09-22T11:57:37.500Z,22.70
2018-09-22T11:58:37.498Z,23.00
2018-09-22T11:59:37.517Z,22.50
2018-09-22T12:00:37.697Z,23.20
2018-09-22T12:01:37.565Z,24.20
2018-09-22T12:02:37.584Z,23.40
2018-09-22T12:03:37.592Z,24.20
2018-09-22T12:04:37.616Z,22.70
2018-09-22T12:05:37.748Z,21.80
2018-09-22T12:06:37.736Z,21.20
2018-09-22T12:07:37.670Z,19.10
2018-09-22T12:08:37.687Z,19.10
2018-09-22T12:09:37.696Z,20.50
2018-09-22T12:10:37.864Z,21.10
2018-09-22T12:11:37.732Z,22.30
2018-09-22T12:12:37.752Z,21.90
2018-09-22T12:13:37.783Z,22.70
2018-09-22T12:14:37.792Z,23.20
2018-09-22T12:15:37.912Z,23.80
2018-09-22T12:16:37.841Z,24.80
2018-09-22T12:17:37.848Z,23.50
2018-09-22T12:18:37.867Z,23.70
2018-09-22T12:19:37.876Z,23.20
2018-09-22T12:20:37.998Z,23.90
2018-09-22T12:21:37.929Z,23.50
2018-09-22T12:22:37.947Z,24.90
2018-09-22T12:23:37.955Z,24.20
2018-09-22T12:24:37.974Z,23.30
2018-09-22T12:25:38.093Z,23.00
2018-09-22T12:26:38.013Z,22.80
2018-09-22T12:27:38.024Z,23.40
2018-09-22T12:28:38.046Z,23.80
2018-09-22T12:29:38.074Z,24.50
2018-09-22T12:30:38.180Z,23.40
2018-09-22T12:31:38.113Z,22.10
2018-09-22T12:32:38.130Z,22.40
2018-09-22T12:33:38.147Z,21.50
2018-09-22T12:34:38.151Z,21.10
2018-09-22T12:35:38.287Z,21.90
2018-09-22T12:36:38.206Z,21.20
2018-09-22T12:37:38.214Z,22.80
2018-09-22T12:38:38.244Z,22.70
2018-09-22T12:39:38.260Z,21.50
2018-09-22T12:40:38.379Z,21.80
2018-09-22T12:41:38.303Z,22.70
2018-09-22T12:42:38.306Z,22.80
2018-09-22T12:43:38.336Z,22.10
2018-09-22T12:44:38.349Z,20.80
2018-09-22T12:45:38.522Z,21.20
2018-09-22T12:46:38.406Z,20.00
2018-09-22T12:47:38.407Z,19.00
2018-09-22T12:48:38.429Z,19.90
2018-09-22T12:49:38.444Z,19.10
2018-09-22T12:50:38.622Z,19.10
2018-09-22T12:51:38.485Z,19.00
2018-09-22T12:52:38.505Z,17.90